createdAt,value
2019-03-18T00:00:21.117Z,99631.75
2019-03-18T00:02:49.602Z,99628.35
2019-03-18T00:05:18.003Z,99633.42
2019-03-18T00:07:46.436Z,99630.88
2019-03-18T00:10:14.922Z,99626.22
2019-03-18T00:12:43.339Z,99622.02
2019-03-18T00:15:11.770Z,99620.37
2019-03-18T00:17:40.162Z,99616.88
2019-03-18T00:20:09.723Z,99621.13
2019-03-18T00:22:38.166Z,99618.66
2019-03-18T00:25:12.465Z,99623.28
2019-03-18T00:27:40.899Z,99631.31
2019-03-18T00:30:19.226Z,99627.92
2019-03-18T00:32:47.703Z,99614.02
2019-03-18T00:35:16.174Z,99623.72
2019-03-18T00:37:44.651Z,99632.63
2019-03-18T00:40:20.729Z,99630.49
2019-03-18T00:42:49.144Z,99625.48
2019-03-18T00:45:17.713Z,99635.18
2019-03-18T00:47:46.139Z,99632.63
2019-03-18T00:50:16.095Z,99632.23
2019-03-18T00:52:44.655Z,99629.73
2019-03-18T00:55:13.231Z,99627.64
2019-03-18T00:57:41.637Z,99622.98
2019-03-18T01:00:15.185Z,99628.05
2019-03-18T01:02:43.785Z,99638.62
2019-03-18T01:05:12.330Z,99631.86
2019-03-18T01:07:40.767Z,99627.66
2019-03-18T01:10:11.712Z,99631.47
2019-03-18T01:12:40.161Z,99629.80
2019-03-18T01:15:10.278Z,99631.48
2019-03-18T01:17:38.793Z,99639.91
2019-03-18T01:20:09.591Z,99649.61
2019-03-18T01:22:37.994Z,99637.81
2019-03-18T01:25:08.751Z,99646.67
2019-03-18T01:27:37.249Z,99647.09
2019-03-18T01:30:08.291Z,99648.77
2019-03-18T01:32:36.713Z,99653.83
2019-03-18T01:35:06.581Z,99643.73
2019-03-18T01:37:34.978Z,99640.78
2019-03-18T01:40:04.878Z,99644.14
2019-03-18T01:42:33.301Z,99648.39
2019-03-18T01:45:01.716Z,99647.09
2019-03-18T01:47:30.129Z,99645.42
2019-03-18T01:49:58.914Z,99640.34
2019-03-18T01:52:27.342Z,99642.89
2019-03-18T01:54:55.773Z,99643.30
2019-03-18T01:57:24.255Z,99643.30
2019-03-18T01:59:52.674Z,99640.77
2019-03-18T02:02:21.175Z,99642.48
2019-03-18T02:04:49.597Z,99639.51
2019-03-18T02:07:18.015Z,99634.46
2019-03-18T02:09:46.498Z,99628.56
2019-03-18T02:12:14.914Z,99641.20
2019-03-18T02:14:43.458Z,99634.44
2019-03-18T02:17:11.829Z,99642.03
2019-03-18T02:19:40.244Z,99634.00
2019-03-18T02:22:08.654Z,99622.18
2019-03-18T02:24:37.064Z,99625.95
2019-03-18T02:27:05.511Z,99622.61
2019-03-18T02:29:33.912Z,99625.98
2019-03-18T02:32:02.330Z,99629.78
2019-03-18T02:34:30.753Z,99623.88
2019-03-18T02:36:59.166Z,99619.21
2019-03-18T02:39:27.591Z,99621.34
2019-03-18T02:41:56.009Z,99624.67
2019-03-18T02:44:24.445Z,99628.47
2019-03-18T02:46:52.874Z,99629.33
2019-03-18T02:49:21.270Z,99642.87
2019-03-18T02:51:52.720Z,99642.02
2019-03-18T02:54:19.837Z,99645.85
2019-03-18T02:56:48.247Z,99642.05
2019-03-18T02:59:16.679Z,99639.52
2019-03-18T03:01:45.112Z,99640.77
2019-03-18T03:04:13.507Z,99638.67
2019-03-18T03:06:42.051Z,99642.45
2019-03-18T03:09:10.532Z,99650.45
2019-03-18T03:11:38.998Z,99658.03
2019-03-18T03:14:07.394Z,99657.18
2019-03-18T03:16:35.854Z,99663.93
2019-03-18T03:19:04.338Z,99675.72
2019-03-18T03:21:32.802Z,99668.13
2019-03-18T03:24:01.246Z,99676.13
2019-03-18T03:26:29.689Z,99671.05
2019-03-18T03:28:58.176Z,99673.16
2019-03-18T03:31:26.565Z,99669.79
2019-03-18T03:33:54.992Z,99682.85
2019-03-18T03:36:23.468Z,99678.17
2019-03-18T03:38:51.908Z,99681.57
2019-03-18T03:41:20.353Z,99684.08
2019-03-18T03:43:48.840Z,99689.98
2019-03-18T03:46:17.246Z,99689.15
2019-03-18T03:48:45.690Z,99690.80
2019-03-18T03:51:14.104Z,99695.44
2019-03-18T03:53:42.535Z,99703.47
2019-03-18T03:56:11.003Z,99702.59
2019-03-18T03:58:39.447Z,99711.03
2019-03-18T04:01:07.961Z,99717.36
2019-03-18T04:03:38.688Z,99712.27
2019-03-18T04:06:06.754Z,99711.44
2019-03-18T04:08:35.142Z,99709.73
2019-03-18T04:11:05.071Z,99707.18
2019-03-18T04:13:33.794Z,99708.88
2019-03-18T04:16:02.244Z,99706.31
2019-03-18T04:18:30.670Z,99713.95
2019-03-18T04:20:59.067Z,99713.52
2019-03-18T04:23:27.525Z,99719.80
2019-03-18T04:25:55.952Z,99722.74
2019-03-18T04:28:24.398Z,99727.00
2019-03-18T04:30:52.816Z,99732.09
2019-03-18T04:33:21.237Z,99729.13
2019-03-18T04:35:49.648Z,99725.30
2019-03-18T04:38:18.057Z,99746.45
2019-03-18T04:40:46.462Z,99736.72
2019-03-18T04:43:14.920Z,99743.89
2019-03-18T04:45:43.346Z,99746.86
2019-03-18T04:48:12.055Z,99742.64
2019-03-18T04:50:40.471Z,99746.06
2019-03-18T04:53:08.874Z,99748.16
2019-03-18T04:55:37.534Z,99751.11
2019-03-18T04:58:05.948Z,99751.92
2019-03-18T05:00:34.367Z,99752.34
2019-03-18T05:03:02.816Z,99766.72
2019-03-18T05:05:31.300Z,99766.68
2019-03-18T05:07:59.664Z,99777.27
2019-03-18T05:10:29.813Z,99772.63
2019-03-18T05:12:58.184Z,99777.67
2019-03-18T05:15:26.610Z,99785.30
2019-03-18T05:17:55.032Z,99785.27
2019-03-18T05:20:23.539Z,99789.93
2019-03-18T05:22:51.987Z,99801.74
2019-03-18T05:25:20.471Z,99806.78
2019-03-18T05:27:48.883Z,99808.88
2019-03-18T05:30:17.361Z,99811.86
2019-03-18T05:32:45.816Z,99820.30
2019-03-18T05:35:14.228Z,99820.75
2019-03-18T05:37:42.645Z,99824.97
2019-03-18T05:40:11.203Z,99824.53
2019-03-18T05:42:39.664Z,99830.48
2019-03-18T05:45:10.117Z,99825.81
2019-03-18T05:47:39.876Z,99830.88
2019-03-18T05:50:12.003Z,99839.75
2019-03-18T05:52:40.450Z,99831.31
2019-03-18T05:55:10.508Z,99838.50
2019-03-18T05:57:38.873Z,99844.39
2019-03-18T06:00:12.495Z,99843.11
2019-03-18T06:02:40.916Z,99859.20
2019-03-18T06:05:09.411Z,99860.05
2019-03-18T06:07:38.310Z,99864.26
2019-03-18T06:10:12.073Z,99863.45
2019-03-18T06:12:40.621Z,99870.20
2019-03-18T06:15:11.345Z,99872.30
2019-03-18T06:17:51.723Z,99879.06
2019-03-18T06:20:11.507Z,99875.68
2019-03-18T06:22:39.945Z,99869.73
2019-03-18T06:25:09.092Z,99882.84
2019-03-18T06:27:37.512Z,99878.58
2019-03-18T06:30:14.337Z,99887.44
2019-03-18T06:32:42.778Z,99892.52
2019-03-18T06:35:11.726Z,99884.10
2019-03-18T06:37:40.188Z,99888.33
2019-03-18T06:40:11.031Z,99891.28
2019-03-18T06:42:39.522Z,99898.03
2019-03-18T06:45:10.236Z,99900.55
2019-03-18T06:47:38.652Z,99901.84
2019-03-18T06:50:09.521Z,99908.18
2019-03-18T06:52:37.942Z,99904.36
2019-03-18T06:55:06.896Z,99916.61
2019-03-18T06:57:35.724Z,99925.92
2019-03-18T07:00:07.158Z,99928.02
2019-03-18T07:02:35.555Z,99931.38
2019-03-18T07:05:05.031Z,99933.05
2019-03-18T07:07:33.462Z,99934.33
2019-03-18T07:10:01.917Z,99937.67
2019-03-18T07:12:31.021Z,99929.20
2019-03-18T07:14:59.509Z,99932.08
2019-03-18T07:17:27.924Z,99929.06
2019-03-18T07:19:56.367Z,99921.05
2019-03-18T07:22:24.830Z,99936.14
2019-03-18T07:24:53.256Z,99936.20
2019-03-18T07:27:21.686Z,99943.78
2019-03-18T07:29:50.114Z,99942.11
2019-03-18T07:32:18.548Z,99956.88
2019-03-18T07:34:47.001Z,99947.16
2019-03-18T07:37:15.416Z,99960.23
2019-03-18T07:39:43.864Z,99963.23
2019-03-18T07:42:12.274Z,99964.95
2019-03-18T07:44:40.702Z,99973.00
2019-03-18T07:47:09.152Z,99971.72
2019-03-18T07:49:37.627Z,99973.80
2019-03-18T07:52:06.133Z,99976.78
2019-03-18T07:54:34.654Z,99981.81
2019-03-18T07:57:03.952Z,99974.62
2019-03-18T07:59:32.379Z,99990.69
2019-03-18T08:02:00.787Z,99997.02
2019-03-18T08:04:37.343Z,99999.60
2019-03-18T08:06:59.377Z,99994.53
2019-03-18T08:09:31.098Z,99994.06
2019-03-18T08:11:59.614Z,99993.20
2019-03-18T08:14:28.053Z,99985.99
2019-03-18T08:16:56.494Z,99993.66
2019-03-18T08:19:24.958Z,100005.48
2019-03-18T08:21:53.397Z,100008.84
2019-03-18T08:24:21.846Z,100012.20
2019-03-18T08:26:50.277Z,100015.80
2019-03-18T08:29:18.874Z,100016.70
2019-03-18T08:31:47.300Z,100019.53
2019-03-18T08:34:16.309Z,100027.08
2019-03-18T08:36:44.744Z,100029.67
2019-03-18T08:39:13.196Z,100021.20
2019-03-18T08:41:41.604Z,100030.11
2019-03-18T08:44:10.033Z,100040.99
2019-03-18T08:46:38.497Z,100045.14
2019-03-18T08:49:06.937Z,100045.91
2019-03-18T08:51:35.354Z,100037.27
2019-03-18T08:54:03.839Z,100031.39
2019-03-18T08:56:32.279Z,100042.98
2019-03-18T08:59:00.737Z,100041.09
2019-03-18T09:01:29.163Z,100041.90
2019-03-18T09:03:57.633Z,100030.56
2019-03-18T09:06:26.060Z,100039.81
2019-03-18T09:08:54.479Z,100036.48
2019-03-18T09:11:22.943Z,100030.56
2019-03-18T09:13:51.379Z,100022.98
2019-03-18T09:16:19.921Z,100029.45
2019-03-18T09:18:48.385Z,100042.67
2019-03-18T09:21:16.821Z,100037.63
2019-03-18T09:23:45.376Z,100039.45
2019-03-18T09:26:13.778Z,100053.87
2019-03-18T09:28:42.189Z,100066.59
2019-03-18T09:31:10.641Z,100063.66
2019-03-18T09:33:39.092Z,100060.84
2019-03-18T09:36:07.499Z,100060.01
2019-03-18T09:38:35.964Z,100063.83
2019-03-18T09:41:04.385Z,100063.14
2019-03-18T09:43:32.801Z,100067.79
2019-03-18T09:46:01.285Z,100071.64
2019-03-18T09:48:29.724Z,100079.62
2019-03-18T09:50:58.225Z,100086.02
2019-03-18T09:53:26.659Z,100078.69
2019-03-18T09:55:55.078Z,100098.55
2019-03-18T09:58:23.545Z,100091.68
2019-03-18T10:00:51.970Z,100096.33
2019-03-18T10:03:20.385Z,100102.17
2019-03-18T10:05:48.851Z,100114.67
2019-03-18T10:08:17.393Z,100111.33
2019-03-18T10:10:45.836Z,100110.98
2019-03-18T10:13:14.416Z,100114.05
2019-03-18T10:15:42.867Z,100117.83
2019-03-18T10:18:11.409Z,100115.55
2019-03-18T10:20:39.845Z,100113.34
2019-03-18T10:23:08.259Z,100122.24
2019-03-18T10:25:36.693Z,100121.81
2019-03-18T10:28:05.147Z,100127.88
2019-03-18T10:30:34.046Z,100127.69
2019-03-18T10:33:02.852Z,100134.90
2019-03-18T10:35:31.255Z,100126.49
2019-03-18T10:37:59.729Z,100136.92
2019-03-18T10:40:28.187Z,100139.55
2019-03-18T10:42:56.596Z,100139.22
2019-03-18T10:45:26.171Z,100141.64
2019-03-18T10:47:55.197Z,100150.69
2019-03-18T10:50:23.946Z,100143.00
2019-03-18T10:52:52.460Z,100143.26
2019-03-18T10:55:20.937Z,100147.75
2019-03-18T10:57:49.356Z,100151.65
2019-03-18T11:00:19.299Z,100150.23
2019-03-18T11:02:48.162Z,100153.31
2019-03-18T11:05:16.647Z,100156.17
2019-03-18T11:07:45.190Z,100153.55
2019-03-18T11:10:15.473Z,100150.19
2019-03-18T11:12:43.968Z,100162.80
2019-03-18T11:15:14.003Z,100147.27
2019-03-18T11:17:42.524Z,100172.30
2019-03-18T11:20:13.682Z,100166.84
2019-03-18T11:22:42.303Z,100168.42
2019-03-18T11:25:13.143Z,100182.31
2019-03-18T11:27:41.641Z,100180.03
2019-03-18T11:30:13.364Z,100165.84
2019-03-18T11:32:41.783Z,100226.45
2019-03-18T11:35:10.464Z,100246.94
2019-03-18T11:37:38.973Z,100252.17
2019-03-18T11:40:18.154Z,100250.91
2019-03-18T11:42:46.658Z,100258.50
2019-03-18T11:45:16.440Z,100248.24
2019-03-18T11:47:44.894Z,100258.78
2019-03-18T11:50:15.754Z,100239.83
2019-03-18T11:52:44.322Z,100243.66
2019-03-18T11:55:15.932Z,100233.09
2019-03-18T11:57:44.422Z,100242.44
2019-03-18T12:00:18.038Z,100233.14
2019-03-18T12:02:46.568Z,100228.91
2019-03-18T12:05:23.099Z,100233.52
2019-03-18T12:07:51.534Z,100244.09
2019-03-18T12:10:21.127Z,100237.28
2019-03-18T12:12:49.558Z,100240.69
2019-03-18T12:15:21.612Z,100246.16
2019-03-18T12:17:49.665Z,100245.72
2019-03-18T12:20:24.792Z,100244.88
2019-03-18T12:22:49.213Z,100244.89
2019-03-18T12:25:17.673Z,100240.64
2019-03-18T12:27:46.263Z,100232.64
2019-03-18T12:30:22.893Z,100224.58
2019-03-18T12:32:51.426Z,100229.11
2019-03-18T12:35:19.940Z,100224.78
2019-03-18T12:37:48.440Z,100224.69
2019-03-18T12:40:17.610Z,100226.14
2019-03-18T12:42:46.238Z,100220.88
2019-03-18T12:45:19.679Z,100223.42
2019-03-18T12:47:48.289Z,100224.42
2019-03-18T12:50:36.343Z,100236.32
2019-03-18T12:52:50.061Z,100236.23
2019-03-18T12:55:18.544Z,100228.08
2019-03-18T12:57:47.043Z,100243.31
2019-03-18T13:00:27.256Z,100240.81
2019-03-18T13:02:55.705Z,100251.38
2019-03-18T13:05:24.206Z,100240.52
2019-03-18T13:07:52.734Z,100246.06
2019-03-18T13:10:22.110Z,100231.45
2019-03-18T13:12:50.718Z,100244.83
2019-03-18T13:15:21.149Z,100219.25
2019-03-18T13:17:49.559Z,100237.80
2019-03-18T13:20:22.112Z,100241.84
2019-03-18T13:22:53.706Z,100246.55
2019-03-18T13:25:20.740Z,100245.84
2019-03-18T13:27:49.179Z,100259.92
2019-03-18T13:30:22.518Z,100258.15
2019-03-18T13:32:51.018Z,100259.55
2019-03-18T13:35:19.537Z,100265.23
2019-03-18T13:37:47.967Z,100268.73
2019-03-18T13:40:18.406Z,100263.09
2019-03-18T13:42:46.927Z,100270.78
2019-03-18T13:45:24.933Z,100279.17
2019-03-18T13:47:53.394Z,100279.70
2019-03-18T13:50:24.622Z,100301.48
2019-03-18T13:52:53.115Z,100325.23
2019-03-18T13:55:21.551Z,100339.81
2019-03-18T13:58:01.694Z,100346.59
2019-03-18T14:00:31.239Z,100346.13
2019-03-18T14:03:00.057Z,100333.84
2019-03-18T14:05:28.558Z,100336.39
2019-03-18T14:08:00.762Z,100339.39
2019-03-18T14:10:27.183Z,100353.36
2019-03-18T14:12:55.643Z,100347.88
2019-03-18T14:15:25.100Z,100357.17
2019-03-18T14:17:53.805Z,100361.80
2019-03-18T14:20:26.920Z,100350.83
2019-03-18T14:22:55.420Z,100364.38
2019-03-18T14:25:23.897Z,100358.47
2019-03-18T14:27:52.334Z,100355.92
2019-03-18T14:30:21.983Z,100351.25
2019-03-18T14:32:50.404Z,100356.76
2019-03-18T14:35:21.383Z,100358.04
2019-03-18T14:37:49.070Z,100365.23
2019-03-18T14:40:22.508Z,100360.99
2019-03-18T14:42:51.076Z,100367.35
2019-03-18T14:45:20.961Z,100357.58
2019-03-18T14:47:49.423Z,100370.27
2019-03-18T14:50:18.665Z,100361.83
2019-03-18T14:52:47.143Z,100362.22
2019-03-18T14:55:16.815Z,100347.81
2019-03-18T14:57:45.359Z,100358.37
2019-03-18T15:00:21.574Z,100357.54
2019-03-18T15:02:50.156Z,100348.61
2019-03-18T15:05:18.743Z,100356.63
2019-03-18T15:07:47.255Z,100376.11
2019-03-18T15:10:18.062Z,100374.40
2019-03-18T15:12:46.484Z,100371.38
2019-03-18T15:15:16.745Z,100381.95
2019-03-18T15:17:45.316Z,100391.67
2019-03-18T15:20:15.680Z,100383.63
2019-03-18T15:22:44.232Z,100381.55
2019-03-18T15:25:19.348Z,100379.37
2019-03-18T15:27:47.836Z,100370.50
2019-03-18T15:30:18.392Z,100389.48
2019-03-18T15:32:46.817Z,100387.40
2019-03-18T15:35:16.675Z,100390.30
2019-03-18T15:37:45.178Z,100396.71
2019-03-18T15:40:23.885Z,100401.34
2019-03-18T15:42:52.284Z,100430.27
2019-03-18T15:45:21.858Z,100462.62
2019-03-18T15:47:50.349Z,100466.86
2019-03-18T15:50:22.715Z,100494.66
2019-03-18T15:52:51.259Z,100463.47
2019-03-18T15:55:19.759Z,100467.19
2019-03-18T15:57:48.207Z,100458.52
2019-03-18T16:00:24.480Z,100448.53
2019-03-18T16:02:52.888Z,100452.34
2019-03-18T16:05:21.349Z,100454.53
2019-03-18T16:07:49.576Z,100452.11
2019-03-18T16:10:19.118Z,100458.91
2019-03-18T16:12:47.633Z,100462.77
2019-03-18T16:15:17.072Z,100469.14
2019-03-18T16:17:45.530Z,100467.45
2019-03-18T16:20:22.396Z,100477.20
2019-03-18T16:22:50.842Z,100475.13
2019-03-18T16:25:19.351Z,100476.42
2019-03-18T16:27:47.790Z,100480.22
2019-03-18T16:30:17.539Z,100485.73
2019-03-18T16:32:46.048Z,100481.50
2019-03-18T16:37:21.342Z,100492.93
2019-03-18T16:37:45.820Z,100503.10
2019-03-18T16:40:22.470Z,100501.39
2019-03-18T16:42:50.890Z,100515.34
2019-03-18T16:45:20.515Z,100520.00
2019-03-18T16:47:48.937Z,100528.06
2019-03-18T16:50:31.405Z,100534.83
2019-03-18T16:52:59.931Z,100543.72
2019-03-18T16:55:29.999Z,100549.64
2019-03-18T16:58:03.060Z,100550.05
2019-03-18T17:00:31.512Z,100548.80
2019-03-18T17:02:59.971Z,100553.88
2019-03-18T17:05:30.529Z,100544.49
2019-03-18T17:07:58.970Z,100540.66
2019-03-18T17:10:27.484Z,100548.27
2019-03-18T17:12:55.936Z,100558.33
2019-03-18T17:15:24.351Z,100553.26
2019-03-18T17:17:52.795Z,100559.50
2019-03-18T17:20:21.254Z,100564.94
2019-03-18T17:22:50.531Z,100564.49
2019-03-18T17:25:27.346Z,100567.00
2019-03-18T17:27:55.763Z,100577.95
2019-03-18T17:30:26.614Z,100579.55
2019-03-18T17:32:54.511Z,100584.62
2019-03-18T17:35:23.055Z,100579.13
2019-03-18T17:37:51.636Z,100595.20
2019-03-18T17:40:21.023Z,100595.16
2019-03-18T17:42:49.474Z,100592.25
2019-03-18T17:45:18.651Z,100602.38
2019-03-18T17:47:47.076Z,100598.50
2019-03-18T17:50:26.628Z,100596.45
2019-03-18T17:53:02.340Z,100616.73
2019-03-18T17:55:25.333Z,100619.26
2019-03-18T17:57:53.756Z,100615.47
2019-03-18T18:00:35.961Z,100620.54
2019-03-18T18:03:04.443Z,100628.98
2019-03-18T18:05:32.906Z,100626.00
2019-03-18T18:08:01.343Z,100633.94
2019-03-18T18:10:29.762Z,100624.61
2019-03-18T18:12:58.308Z,100629.27
2019-03-18T18:15:26.679Z,100628.78
2019-03-18T18:17:55.144Z,100636.84
2019-03-18T18:20:23.560Z,100642.70
2019-03-18T18:22:51.960Z,100635.92
2019-03-18T18:25:20.442Z,100660.39
2019-03-18T18:27:48.915Z,100657.86
2019-03-18T18:30:18.398Z,100661.14
2019-03-18T18:32:46.925Z,100661.94
2019-03-18T18:35:15.471Z,100658.52
2019-03-18T18:37:43.977Z,100661.47
2019-03-18T18:40:23.539Z,100664.40
2019-03-18T18:42:51.961Z,100670.29
2019-03-18T18:45:21.478Z,100674.54
2019-03-18T18:47:50.105Z,100676.94
2019-03-18T18:50:18.586Z,100688.73
2019-03-18T18:52:47.254Z,100687.92
2019-03-18T18:55:15.906Z,100699.73
2019-03-18T18:57:44.420Z,100700.61
2019-03-18T19:00:24.172Z,100698.98
2019-03-18T19:02:52.647Z,100696.49
2019-03-18T19:05:21.132Z,100696.92
2019-03-18T19:07:49.625Z,100700.74
2019-03-18T19:10:21.770Z,100710.14
2019-03-18T19:12:50.264Z,100709.30
2019-03-18T19:15:26.589Z,100713.57
2019-03-18T19:17:55.026Z,100718.66
2019-03-18T19:20:23.466Z,100719.17
2019-03-18T19:22:51.894Z,100726.00
2019-03-18T19:25:20.668Z,100728.14
2019-03-18T19:27:49.223Z,100732.73
2019-03-18T19:30:19.764Z,100740.76
2019-03-18T19:32:48.421Z,100746.63
2019-03-18T19:35:16.980Z,100748.27
2019-03-18T19:37:45.950Z,100760.06
2019-03-18T19:40:22.884Z,100756.69
2019-03-18T19:42:51.346Z,100757.10
2019-03-18T19:45:20.242Z,100761.75
2019-03-18T19:47:48.967Z,100766.71
2019-03-18T19:50:25.964Z,100771.36
2019-03-18T19:53:02.024Z,100773.92
2019-03-18T19:55:30.465Z,100781.91
2019-03-18T19:57:58.944Z,100787.38
2019-03-18T20:00:30.309Z,100783.58
2019-03-18T20:02:58.811Z,100786.08
2019-03-18T20:05:29.068Z,100783.03
2019-03-18T20:07:57.599Z,100784.75
2019-03-18T20:10:26.105Z,100795.31
2019-03-18T20:12:56.161Z,100800.83
2019-03-18T20:15:24.758Z,100804.69
2019-03-18T20:17:53.181Z,100810.66
2019-03-18T20:20:23.172Z,100814.89
2019-03-18T20:22:51.707Z,100815.64
2019-03-18T20:25:20.134Z,100813.44
2019-03-18T20:27:48.651Z,100820.59
2019-03-18T20:30:19.073Z,100822.54
2019-03-18T20:32:47.472Z,100827.09
2019-03-18T20:35:24.914Z,100832.93
2019-03-18T20:37:53.404Z,100844.22
2019-03-18T20:40:21.828Z,100847.53
2019-03-18T20:42:50.330Z,100847.92
2019-03-18T20:45:22.469Z,100850.91
2019-03-18T20:47:51.055Z,100854.18
2019-03-18T20:50:23.276Z,100859.20
2019-03-18T20:52:51.988Z,100868.11
2019-03-18T20:55:20.686Z,100869.30
2019-03-18T20:57:49.111Z,100868.91
2019-03-18T21:00:20.549Z,100869.33
2019-03-18T21:02:49.008Z,100871.30
2019-03-18T21:05:17.432Z,100880.62
2019-03-18T21:07:45.873Z,100880.62
2019-03-18T21:10:17.458Z,100887.83
2019-03-18T21:12:46.528Z,100891.16
2019-03-18T21:15:18.562Z,100897.80
2019-03-18T21:17:47.064Z,100905.36
2019-03-18T21:20:17.316Z,100913.33
2019-03-18T21:22:46.185Z,100926.75
2019-03-18T21:25:15.737Z,100930.97
2019-03-18T21:27:45.168Z,100933.39
2019-03-18T21:30:21.128Z,100929.28
2019-03-18T21:32:49.690Z,100934.42
2019-03-18T21:35:18.161Z,100931.55
2019-03-18T21:37:46.973Z,100929.52
2019-03-18T21:40:19.673Z,100930.41
2019-03-18T21:42:48.181Z,100929.52
2019-03-18T21:45:23.288Z,100933.82
2019-03-18T21:47:51.004Z,100927.80
2019-03-18T21:50:19.462Z,100930.71
2019-03-18T21:52:47.878Z,100949.70
2019-03-18T21:55:17.556Z,100952.19
2019-03-18T21:57:46.158Z,100945.36
2019-03-18T22:00:21.457Z,100948.77
2019-03-18T22:02:49.959Z,100944.47
2019-03-18T22:05:18.619Z,100940.20
2019-03-18T22:07:47.054Z,100947.77
2019-03-18T22:10:17.134Z,100946.46
2019-03-18T22:12:46.453Z,100949.41
2019-03-18T22:15:16.424Z,100956.46
2019-03-18T22:17:44.928Z,100949.29
2019-03-18T22:20:18.359Z,100947.13
2019-03-18T22:22:47.888Z,100951.31
2019-03-18T22:25:16.785Z,100952.91
2019-03-18T22:27:45.346Z,100952.82
2019-03-18T22:30:15.655Z,100956.45
2019-03-18T22:32:44.724Z,100952.23
2019-03-18T22:35:14.208Z,100953.87
2019-03-18T22:37:42.726Z,100960.67
2019-03-18T22:40:15.529Z,100963.16
2019-03-18T22:42:44.122Z,100965.17
2019-03-18T22:45:14.162Z,100970.28
2019-03-18T22:47:42.687Z,100965.18
2019-03-18T22:50:13.144Z,100972.89
2019-03-18T22:52:41.571Z,100973.23
2019-03-18T22:55:14.469Z,100972.23
2019-03-18T22:57:43.120Z,100972.42
2019-03-18T23:00:39.934Z,100969.52
2019-03-18T23:03:08.462Z,100970.84
2019-03-18T23:05:36.976Z,100968.12
2019-03-18T23:08:05.572Z,100979.59
2019-03-18T23:10:34.019Z,100982.49
2019-03-18T23:24:04.370Z,100992.70
2019-03-18T23:26:32.850Z,100993.96
2019-03-18T23:29:01.298Z,100997.29
2019-03-18T23:31:29.735Z,101001.92
2019-03-18T23:33:58.269Z,101009.56
2019-03-18T23:36:26.737Z,101014.62
2019-03-18T23:38:55.191Z,101008.23
2019-03-18T23:41:24.119Z,101010.30
2019-03-18T23:43:52.561Z,101008.55
2019-03-18T23:46:21.015Z,101011.83
2019-03-18T23:48:49.563Z,101012.34
2019-03-18T23:51:18.835Z,101015.25
2019-03-18T23:53:47.283Z,101017.77
2019-03-18T23:56:15.737Z,101023.26
2019-03-18T23:58:44.304Z,101026.47
